Time;durP1;ratioP1;P1;durP2;ratioP2;P2;SDS_P1;SDS_P2;PMS_P1;PMS_P2;Temp;Humidity;BMP_temperature;BMP_pressure;BME280_temperature;BME280_humidity;BME280_pressure;Samples;Min_cycle;Max_cycle;Signal;HPM_P1;HPM_P2
2023/06/18 00:01:22;;;;;;;37.77;9.53;;;30.10;45.70;;;;;;5038897;28;20200;-62
2023/06/18 00:03:51;;;;;;;28.53;8.00;;;30.10;45.80;;;;;;5048703;28;20283;-62
2023/06/18 00:06:17;;;;;;;64.77;11.33;;;30.10;45.80;;;;;;5044480;28;20206;-62
2023/06/18 00:08:45;;;;;;;35.73;9.73;;;30.10;45.80;;;;;;5030310;28;20208;-61
2023/06/18 00:11:12;;;;;;;33.50;8.90;;;30.00;45.70;;;;;;5028465;28;20661;-61
2023/06/18 00:13:39;;;;;;;42.08;9.90;;;30.00;45.70;;;;;;5028500;28;20209;-62
2023/06/18 00:16:06;;;;;;;40.97;9.63;;;30.00;45.70;;;;;;5027420;28;20237;-61
2023/06/18 00:18:34;;;;;;;32.40;9.33;;;30.00;45.70;;;;;;5034049;28;20204;-62
2023/06/18 00:21:03;;;;;;;41.87;10.27;;;30.00;45.80;;;;;;5016016;28;20705;-61
2023/06/18 00:23:29;;;;;;;30.95;9.00;;;30.00;45.70;;;;;;5028246;28;20209;-61
2023/06/18 00:25:56;;;;;;;43.13;9.87;;;30.00;45.80;;;;;;5031273;28;20219;-61
2023/06/18 00:28:23;;;;;;;40.90;9.73;;;30.00;45.80;;;;;;5026616;28;20208;-62
2023/06/18 00:30:50;;;;;;;44.80;10.17;;;30.00;45.80;;;;;;5016028;28;20611;-62
2023/06/18 00:33:17;;;;;;;45.30;10.97;;;30.00;45.80;;;;;;5007910;28;20213;-61
2023/06/18 00:35:46;;;;;;;44.73;10.17;;;29.90;45.80;;;;;;5008342;28;20214;-64
2023/06/18 00:38:16;;;;;;;38.53;10.30;;;29.90;45.70;;;;;;5036139;28;20239;-62
2023/06/18 00:40:43;;;;;;;34.73;9.60;;;29.90;45.80;;;;;;5036485;28;20208;-62
2023/06/18 00:43:10;;;;;;;41.00;10.00;;;29.90;45.80;;;;;;5012030;28;20204;-62
2023/06/18 00:45:37;;;;;;;33.57;10.13;;;29.90;45.80;;;;;;5033006;28;20200;-62
2023/06/18 00:48:04;;;;;;;33.77;9.57;;;29.90;45.80;;;;;;5033141;28;20291;-62
2023/06/18 00:50:32;;;;;;;43.00;10.17;;;29.90;45.90;;;;;;5041371;28;20207;-61
2023/06/18 00:53:01;;;;;;;36.33;10.03;;;29.80;45.80;;;;;;5030788;28;20201;-62
2023/06/18 00:55:29;;;;;;;50.70;11.20;;;29.90;45.90;;;;;;5023634;28;20200;-62
2023/06/18 00:58:00;;;;;;;53.27;11.67;;;29.80;45.80;;;;;;5032169;28;20326;-63
2023/06/18 01:00:28;;;;;;;36.13;9.43;;;29.80;45.80;;;;;;5006519;28;20244;-63
2023/06/18 01:02:55;;;;;;;46.60;10.50;;;29.80;45.80;;;;;;5008227;28;20198;-62
2023/06/18 01:05:24;;;;;;;69.80;12.70;;;29.80;45.90;;;;;;5007612;28;20205;-62
2023/06/18 01:07:52;;;;;;;53.30;11.33;;;29.80;45.90;;;;;;5026433;28;20225;-62
2023/06/18 01:10:21;;;;;;;43.77;10.90;;;29.80;45.90;;;;;;5020679;28;20204;-63
2023/06/18 01:12:49;;;;;;;60.70;12.85;;;29.80;46.00;;;;;;5028860;28;20202;-62
2023/06/18 01:15:17;;;;;;;43.23;10.37;;;29.70;45.90;;;;;;5027542;28;20209;-62
2023/06/18 01:17:48;;;;;;;46.57;11.27;;;29.70;45.90;;;;;;5018975;28;20341;-63
2023/06/18 01:20:17;;;;;;;39.47;10.90;;;29.70;45.90;;;;;;5019208;28;20246;-62
2023/06/18 01:22:48;;;;;;;39.50;11.17;;;29.70;45.90;;;;;;5029724;28;20208;-62
2023/06/18 01:25:17;;;;;;;46.70;11.73;;;29.70;45.90;;;;;;5007495;28;20209;-61
2023/06/18 01:27:47;;;;;;;67.07;12.83;;;29.70;46.00;;;;;;5027670;28;20663;-62
2023/06/18 01:30:14;;;;;;;42.90;11.03;;;29.70;46.00;;;;;;5006793;28;20209;-62
2023/06/18 01:32:42;;;;;;;84.00;14.23;;;29.70;46.00;;;;;;5013730;28;20202;-62
2023/06/18 01:35:15;;;;;;;33.13;10.03;;;29.70;46.00;;;;;;5009789;28;20212;-62
2023/06/18 01:38:06;;;;;;;44.10;11.03;;;29.70;46.00;;;;;;5032426;28;20224;-62
2023/06/18 01:40:46;;;;;;;52.93;11.93;;;29.60;46.00;;;;;;5032981;28;20564;-62
2023/06/18 01:43:26;;;;;;;41.60;11.07;;;29.60;46.00;;;;;;5007196;28;20193;-62
2023/06/18 01:45:57;;;;;;;37.60;10.73;;;29.60;46.00;;;;;;5007908;28;20208;-61
2023/06/18 01:48:32;;;;;;;38.37;10.93;;;29.60;46.00;;;;;;5007447;28;20284;-61
2023/06/18 01:51:00;;;;;;;41.73;10.93;;;29.60;46.00;;;;;;5020745;28;20202;-61
2023/06/18 01:53:28;;;;;;;41.10;10.80;;;29.60;46.10;;;;;;5041782;28;20193;-62
2023/06/18 01:55:57;;;;;;;55.00;12.17;;;29.60;46.10;;;;;;5026823;28;21103;-62
2023/06/18 01:58:26;;;;;;;47.77;12.07;;;29.60;46.10;;;;;;5035164;28;20212;-62
2023/06/18 02:00:53;;;;;;;52.50;12.13;;;29.60;46.20;;;;;;5037821;28;20200;-63
2023/06/18 02:03:20;;;;;;;39.77;11.10;;;29.50;46.70;;;;;;5047175;28;20193;-62
2023/06/18 02:05:47;;;;;;;40.27;10.50;;;29.50;46.10;;;;;;5044328;28;20940;-62
2023/06/18 02:08:14;;;;;;;42.27;10.80;;;29.50;46.10;;;;;;5028121;28;20205;-62
2023/06/18 02:10:41;;;;;;;41.47;11.43;;;29.50;46.10;;;;;;5027046;28;20201;-65
2023/06/18 02:13:09;;;;;;;47.53;11.23;;;29.50;46.20;;;;;;5027314;28;20192;-62
2023/06/18 02:15:37;;;;;;;38.27;11.03;;;29.50;46.20;;;;;;5030137;28;20196;-62
2023/06/18 02:18:05;;;;;;;31.43;10.20;;;29.40;46.10;;;;;;5044795;28;20224;-64
2023/06/18 02:20:32;;;;;;;36.90;10.20;;;29.50;46.20;;;;;;5046855;28;20204;-65
2023/06/18 02:22:59;;;;;;;60.33;12.13;;;29.40;46.20;;;;;;5037237;28;20201;-62
2023/06/18 02:25:29;;;;;;;44.83;11.37;;;29.40;46.20;;;;;;5015838;28;20256;-63
2023/06/18 02:27:57;;;;;;;43.53;10.83;;;29.40;46.20;;;;;;5018044;28;20295;-62
2023/06/18 02:30:24;;;;;;;35.10;10.33;;;29.40;46.30;;;;;;5008933;28;20202;-64
2023/06/18 02:32:53;;;;;;;38.10;10.87;;;29.40;46.30;;;;;;5016418;28;20311;-64
2023/06/18 02:35:20;;;;;;;43.13;10.90;;;29.40;46.30;;;;;;5019961;28;20205;-62
2023/06/18 02:37:47;;;;;;;36.33;10.70;;;29.40;46.30;;;;;;5034176;28;20235;-62
2023/06/18 02:40:14;;;;;;;50.90;11.83;;;29.40;46.30;;;;;;5025820;28;20225;-61
2023/06/18 02:42:47;;;;;;;36.50;10.00;;;29.40;46.40;;;;;;5028957;28;20653;-61
2023/06/18 02:45:14;;;;;;;43.87;10.93;;;29.40;46.40;;;;;;5036082;28;20666;-62
2023/06/18 02:47:41;;;;;;;40.67;11.70;;;29.30;46.30;;;;;;5027430;28;20228;-63
2023/06/18 02:50:10;;;;;;;36.40;10.87;;;29.30;46.30;;;;;;5023154;28;20206;-66
2023/06/18 02:52:37;;;;;;;38.80;11.07;;;29.30;46.40;;;;;;5015989;28;20200;-68
2023/06/18 02:55:04;;;;;;;42.13;10.57;;;29.30;46.30;;;;;;5013197;28;20209;-61
2023/06/18 02:57:31;;;;;;;34.77;10.43;;;29.30;46.40;;;;;;5011536;28;20221;-65
2023/06/18 02:59:58;;;;;;;39.57;10.30;;;29.30;46.40;;;;;;5010598;28;20198;-61
2023/06/18 03:02:25;;;;;;;29.47;9.33;;;29.30;46.40;;;;;;5020373;28;20202;-62
2023/06/18 03:04:53;;;;;;;27.83;9.17;;;29.30;46.40;;;;;;5010444;28;20244;-62
2023/06/18 03:07:21;;;;;;;38.70;10.53;;;29.30;46.40;;;;;;5017015;28;20209;-62
2023/06/18 03:09:48;;;;;;;74.47;13.60;;;29.30;46.40;;;;;;5024155;28;20258;-62
2023/06/18 03:12:15;;;;;;;37.10;10.33;;;29.30;46.40;;;;;;5035448;28;20201;-61
2023/06/18 03:14:41;;;;;;;30.20;8.83;;;29.30;46.50;;;;;;5025861;28;20212;-72
2023/06/18 03:17:08;;;;;;;50.70;11.17;;;29.30;46.40;;;;;;5032499;28;20232;-66
2023/06/18 03:19:35;;;;;;;42.17;10.50;;;29.20;46.40;;;;;;5028581;28;20208;-69
2023/06/18 03:22:03;;;;;;;29.77;9.57;;;29.20;46.50;;;;;;5020829;28;20213;-65
2023/06/18 03:24:31;;;;;;;42.70;11.27;;;29.20;46.60;;;;;;5010483;28;20205;-68
2023/06/18 03:26:58;;;;;;;35.00;9.83;;;29.20;46.70;;;;;;5009509;28;20204;-62
2023/06/18 03:29:25;;;;;;;52.07;11.00;;;29.20;46.70;;;;;;5013522;28;20228;-62
2023/06/18 03:31:54;;;;;;;27.00;9.47;;;29.20;46.80;;;;;;5036807;28;20282;-63
2023/06/18 03:34:21;;;;;;;70.33;13.60;;;29.20;46.80;;;;;;5030716;28;20209;-61
2023/06/18 03:36:48;;;;;;;35.23;9.63;;;29.20;46.90;;;;;;5024866;28;20232;-62
2023/06/18 03:39:16;;;;;;;33.37;9.93;;;29.20;47.60;;;;;;5029158;28;20204;-62
2023/06/18 03:41:44;;;;;;;42.10;10.80;;;29.20;47.10;;;;;;5037863;28;20208;-62
2023/06/18 03:44:11;;;;;;;37.73;10.23;;;29.20;47.10;;;;;;5045843;28;20572;-64
2023/06/18 03:46:38;;;;;;;31.83;9.90;;;29.20;47.10;;;;;;5049068;28;20224;-61
2023/06/18 03:49:07;;;;;;;32.70;9.87;;;29.20;47.10;;;;;;5033058;28;20711;-61
2023/06/18 03:51:34;;;;;;;40.97;10.37;;;29.30;47.20;;;;;;5010982;28;20202;-61
2023/06/18 03:54:01;;;;;;;38.90;9.90;;;29.20;47.30;;;;;;5028078;28;20205;-62
2023/06/18 03:56:28;;;;;;;36.80;9.67;;;29.20;47.20;;;;;;5020087;28;20207;-61
2023/06/18 03:58:57;;;;;;;43.27;10.80;;;29.20;47.30;;;;;;5026312;28;20704;-61
2023/06/18 04:01:24;;;;;;;32.17;9.47;;;29.30;47.40;;;;;;5035322;28;20201;-61
2023/06/18 04:03:51;;;;;;;27.03;8.97;;;29.30;47.40;;;;;;5048889;28;20211;-61
2023/06/18 04:06:18;;;;;;;47.77;10.13;;;29.30;47.40;;;;;;5035710;28;20197;-61
2023/06/18 04:08:45;;;;;;;35.63;9.47;;;29.30;47.50;;;;;;5015624;28;20213;-62
2023/06/18 04:11:12;;;;;;;27.83;8.50;;;29.30;47.40;;;;;;5009042;28;20210;-61
2023/06/18 04:13:38;;;;;;;33.83;8.97;;;29.30;47.50;;;;;;5009780;28;20197;-62
2023/06/18 04:16:07;;;;;;;31.53;8.93;;;29.30;47.50;;;;;;5026806;28;20234;-62
2023/06/18 04:18:33;;;;;;;34.63;9.07;;;29.20;47.50;;;;;;5038680;28;20242;-62
2023/06/18 04:21:00;;;;;;;64.40;12.03;;;29.30;47.60;;;;;;5046212;28;20200;-62
2023/06/18 04:23:27;;;;;;;40.17;9.60;;;29.30;47.60;;;;;;5019420;28;20840;-64
2023/06/18 04:25:54;;;;;;;36.53;9.40;;;29.30;47.70;;;;;;5025559;28;20204;-64
2023/06/18 04:28:22;;;;;;;42.20;10.17;;;29.30;47.70;;;;;;5013240;28;20198;-62
2023/06/18 04:30:49;;;;;;;35.13;9.60;;;29.30;47.80;;;;;;5026835;28;20285;-62
2023/06/18 04:33:17;;;;;;;41.40;10.23;;;29.30;47.80;;;;;;5041161;28;20288;-61
2023/06/18 04:35:45;;;;;;;40.10;10.07;;;29.30;47.90;;;;;;5017148;28;20665;-63
2023/06/18 04:38:12;;;;;;;37.77;10.37;;;29.30;47.90;;;;;;5028214;28;20260;-62
2023/06/18 04:40:39;;;;;;;43.30;10.67;;;29.30;47.90;;;;;;5024850;28;20212;-64
2023/06/18 04:43:05;;;;;;;36.37;9.97;;;29.30;47.90;;;;;;5010291;28;20206;-65
2023/06/18 04:45:32;;;;;;;37.43;10.77;;;29.30;48.00;;;;;;5008641;28;20950;-60
2023/06/18 04:47:59;;;;;;;36.37;10.37;;;29.30;48.00;;;;;;5010677;28;20247;-62
2023/06/18 04:50:27;;;;;;;43.77;11.07;;;29.30;48.00;;;;;;5024123;28;20201;-61
2023/06/18 04:52:54;;;;;;;35.20;9.60;;;29.30;48.00;;;;;;5008057;28;20208;-60
2023/06/18 04:55:22;;;;;;;30.53;9.63;;;29.30;48.00;;;;;;5007964;28;20209;-62
2023/06/18 04:57:49;;;;;;;32.43;10.10;;;29.30;48.10;;;;;;5008321;28;20233;-61
2023/06/18 05:00:19;;;;;;;32.53;9.70;;;29.30;48.10;;;;;;5011400;28;20201;-61
2023/06/18 05:02:46;;;;;;;37.80;10.17;;;29.30;48.20;;;;;;5007777;28;20201;-60
2023/06/18 05:05:15;;;;;;;38.20;9.87;;;29.30;48.10;;;;;;5007355;28;20784;-61
2023/06/18 05:07:43;;;;;;;63.17;12.97;;;29.30;48.20;;;;;;5006766;28;20208;-64
2023/06/18 05:10:10;;;;;;;36.60;10.67;;;29.30;48.20;;;;;;5041361;28;20202;-61
2023/06/18 05:12:38;;;;;;;39.73;10.83;;;29.30;48.20;;;;;;5034896;28;20204;-61
2023/06/18 05:15:06;;;;;;;41.30;10.47;;;29.20;48.20;;;;;;5019134;28;20575;-61
2023/06/18 05:17:34;;;;;;;43.97;11.07;;;29.20;48.20;;;;;;5007501;28;20375;-61
2023/06/18 05:20:03;;;;;;;41.83;10.77;;;29.20;48.20;;;;;;5020912;28;20196;-60
2023/06/18 05:22:30;;;;;;;42.00;10.87;;;29.20;48.20;;;;;;5046327;28;20668;-63
2023/06/18 05:24:59;;;;;;;38.53;11.13;;;29.20;48.20;;;;;;5007955;28;20201;-60
2023/06/18 05:27:28;;;;;;;39.17;10.40;;;29.20;48.20;;;;;;5007440;28;20209;-70
2023/06/18 05:29:55;;;;;;;48.03;12.13;;;29.20;48.20;;;;;;5023163;28;20211;-60
2023/06/18 05:32:22;;;;;;;33.13;10.20;;;29.20;48.30;;;;;;5017721;28;20233;-60
2023/06/18 05:34:49;;;;;;;42.23;10.93;;;29.20;48.30;;;;;;5018393;28;20269;-61
2023/06/18 05:37:16;;;;;;;40.23;10.77;;;29.20;48.30;;;;;;5021381;28;20208;-61
2023/06/18 05:39:43;;;;;;;43.97;11.13;;;29.20;48.30;;;;;;5031630;28;20680;-60
2023/06/18 05:42:11;;;;;;;43.07;11.37;;;29.20;48.40;;;;;;5039917;28;20185;-61
2023/06/18 05:44:38;;;;;;;34.83;10.10;;;29.20;48.50;;;;;;5027346;28;20200;-63
2023/06/18 05:47:05;;;;;;;39.70;9.87;;;29.20;48.50;;;;;;5025517;28;20226;-62
2023/06/18 05:49:32;;;;;;;40.40;10.30;;;29.10;48.40;;;;;;5026474;28;20201;-61
2023/06/18 05:51:59;;;;;;;28.23;9.20;;;29.10;49.00;;;;;;5027380;28;20213;-61
2023/06/18 05:54:26;;;;;;;52.30;11.50;;;29.10;48.40;;;;;;5024322;28;21811;-62
2023/06/18 05:56:53;;;;;;;37.73;9.83;;;29.10;48.50;;;;;;5031249;28;20195;-60
2023/06/18 05:59:21;;;;;;;44.43;10.27;;;29.10;48.60;;;;;;5046361;28;20232;-62
2023/06/18 06:01:48;;;;;;;36.10;9.90;;;29.10;48.70;;;;;;5041805;28;20200;-62
2023/06/18 06:04:15;;;;;;;61.17;12.00;;;29.10;48.70;;;;;;5044054;28;20211;-66
2023/06/18 06:06:42;;;;;;;43.33;10.53;;;29.10;48.60;;;;;;5035775;28;20200;-61
2023/06/18 06:09:09;;;;;;;34.63;9.57;;;29.10;48.60;;;;;;5027287;28;20221;-61
2023/06/18 06:11:37;;;;;;;40.60;9.83;;;29.10;48.60;;;;;;5021066;28;20201;-60
2023/06/18 06:14:04;;;;;;;36.33;9.90;;;29.10;48.70;;;;;;5015397;28;20218;-60
2023/06/18 06:16:32;;;;;;;37.57;9.80;;;29.10;48.70;;;;;;5031476;28;20207;-61
2023/06/18 06:18:59;;;;;;;35.30;9.63;;;29.10;48.70;;;;;;5022054;28;20225;-61
2023/06/18 06:21:26;;;;;;;43.63;10.50;;;29.10;48.70;;;;;;5010400;28;20210;-61
2023/06/18 06:23:53;;;;;;;45.63;10.07;;;29.00;48.60;;;;;;5015773;28;20690;-60
2023/06/18 06:26:20;;;;;;;44.97;10.80;;;29.10;48.70;;;;;;5020428;28;20280;-60
2023/06/18 06:28:47;;;;;;;71.63;12.10;;;29.10;48.70;;;;;;5018319;28;20198;-61
2023/06/18 06:31:14;;;;;;;39.10;9.60;;;29.10;48.70;;;;;;5036506;28;20197;-60
2023/06/18 06:33:42;;;;;;;27.90;8.60;;;29.10;48.80;;;;;;5026002;28;20204;-60
2023/06/18 06:36:10;;;;;;;32.27;8.90;;;29.10;48.90;;;;;;5022342;28;20220;-63
2023/06/18 06:38:37;;;;;;;40.27;10.60;;;29.00;48.80;;;;;;5019928;28;20225;-62
2023/06/18 06:41:04;;;;;;;42.67;10.23;;;29.10;48.90;;;;;;5014776;28;20205;-61
2023/06/18 06:43:31;;;;;;;35.67;9.40;;;29.00;48.90;;;;;;5013780;28;20221;-62
2023/06/18 06:45:58;;;;;;;61.30;11.90;;;29.00;48.90;;;;;;5010421;28;20256;-61
2023/06/18 06:48:25;;;;;;;39.37;9.40;;;29.00;49.00;;;;;;5020817;28;20209;-69
2023/06/18 06:50:53;;;;;;;40.07;9.57;;;29.00;49.00;;;;;;5040814;28;20656;-64
2023/06/18 06:53:20;;;;;;;51.53;11.03;;;29.00;49.10;;;;;;5017035;28;20284;-60
2023/06/18 06:55:47;;;;;;;25.90;8.50;;;29.00;49.10;;;;;;5013886;28;21006;-60
2023/06/18 06:58:14;;;;;;;38.87;9.60;;;29.00;49.10;;;;;;5020751;28;20231;-61
2023/06/18 07:00:41;;;;;;;29.60;9.33;;;29.00;49.10;;;;;;5015815;28;20202;-60
2023/06/18 07:03:08;;;;;;;37.73;9.23;;;29.00;49.10;;;;;;5016476;28;20205;-60
2023/06/18 07:05:35;;;;;;;35.17;9.37;;;29.00;49.20;;;;;;5009806;28;20197;-62
2023/06/18 07:08:05;;;;;;;51.17;11.10;;;29.00;49.20;;;;;;5012570;28;20212;-61
2023/06/18 07:10:33;;;;;;;47.20;9.90;;;29.00;49.20;;;;;;5018617;28;20200;-65
2023/06/18 07:12:59;;;;;;;47.00;10.13;;;29.00;49.30;;;;;;5013616;28;20213;-62
2023/06/18 07:15:26;;;;;;;25.53;8.67;;;29.00;49.30;;;;;;5025971;28;20216;-62
2023/06/18 07:17:53;;;;;;;56.83;11.40;;;29.00;49.30;;;;;;5042471;28;20209;-62
2023/06/18 07:20:20;;;;;;;37.33;9.50;;;29.00;49.30;;;;;;5038180;28;20204;-61
2023/06/18 07:22:47;;;;;;;31.63;9.17;;;29.00;49.40;;;;;;5043626;28;20207;-62
2023/06/18 07:25:15;;;;;;;37.00;9.73;;;29.00;49.30;;;;;;5021983;28;20201;-62
2023/06/18 07:27:42;;;;;;;49.70;10.13;;;29.00;49.40;;;;;;5017807;28;21200;-62
2023/06/18 07:30:10;;;;;;;31.07;8.60;;;29.00;49.40;;;;;;5012049;28;20584;-62
2023/06/18 07:32:37;;;;;;;28.70;9.07;;;29.00;49.40;;;;;;5018787;28;20209;-69
2023/06/18 07:35:05;;;;;;;31.03;8.77;;;29.10;49.40;;;;;;5009873;28;20214;-61
2023/06/18 07:37:32;;;;;;;30.40;8.97;;;29.00;49.40;;;;;;5013159;28;20663;-61
2023/06/18 07:39:59;;;;;;;25.43;7.90;;;29.00;50.00;;;;;;5025836;28;20236;-62
2023/06/18 07:42:27;;;;;;;24.80;7.87;;;29.10;49.60;;;;;;5016677;28;20638;-61
2023/06/18 07:44:54;;;;;;;38.33;9.03;;;29.10;49.50;;;;;;5023745;28;20227;-65
2023/06/18 07:47:21;;;;;;;32.40;8.60;;;29.10;49.50;;;;;;5021797;28;20221;-61
2023/06/18 07:49:48;;;;;;;32.40;8.63;;;29.10;49.50;;;;;;5013281;28;20573;-62
2023/06/18 07:52:15;;;;;;;39.63;9.03;;;29.10;49.50;;;;;;5044031;28;20216;-63
2023/06/18 07:54:42;;;;;;;28.00;8.37;;;29.10;49.50;;;;;;5022223;28;20201;-64
2023/06/18 07:57:09;;;;;;;39.00;9.73;;;29.10;49.60;;;;;;5018709;28;20204;-63
2023/06/18 07:59:37;;;;;;;53.60;10.47;;;29.10;49.50;;;;;;5017326;28;20226;-63
2023/06/18 08:02:04;;;;;;;27.23;7.87;;;29.10;49.60;;;;;;5011356;28;20205;-64
2023/06/18 08:04:31;;;;;;;47.40;10.00;;;29.10;49.60;;;;;;5010636;28;20526;-62
2023/06/18 08:06:58;;;;;;;44.13;9.97;;;29.10;49.60;;;;;;5026937;28;20205;-66
2023/06/18 08:09:25;;;;;;;37.50;9.03;;;29.10;49.60;;;;;;5022273;28;20201;-63
2023/06/18 08:11:52;;;;;;;50.20;9.83;;;29.10;49.60;;;;;;5019800;28;20676;-62
2023/06/18 08:14:19;;;;;;;36.67;8.63;;;29.10;49.60;;;;;;5039210;28;20226;-62
2023/06/18 08:16:48;;;;;;;40.23;9.67;;;29.10;49.60;;;;;;5039593;28;20215;-63
2023/06/18 08:19:15;;;;;;;32.27;8.50;;;29.10;49.70;;;;;;5026918;28;20229;-71
2023/06/18 08:21:41;;;;;;;28.50;8.23;;;29.20;49.70;;;;;;5023052;28;20208;-64
2023/06/18 08:24:08;;;;;;;34.73;8.73;;;29.20;49.70;;;;;;5026885;28;20249;-62
2023/06/18 08:26:35;;;;;;;39.40;9.23;;;29.20;49.90;;;;;;5046390;28;20200;-64
2023/06/18 08:29:02;;;;;;;43.93;9.53;;;29.20;49.80;;;;;;5034833;28;20228;-65
2023/06/18 08:31:30;;;;;;;44.67;11.30;;;29.20;49.90;;;;;;5021057;28;20211;-63
2023/06/18 08:33:58;;;;;;;29.73;8.67;;;29.20;50.00;;;;;;5029487;28;20208;-63
2023/06/18 08:36:25;;;;;;;33.57;9.23;;;29.20;49.90;;;;;;5026664;28;20241;-62
2023/06/18 08:38:52;;;;;;;29.83;8.53;;;29.20;49.90;;;;;;5027795;28;20301;-64
2023/06/18 08:41:19;;;;;;;48.63;9.93;;;29.20;50.00;;;;;;5027275;28;20201;-64
2023/06/18 08:43:46;;;;;;;48.07;9.63;;;29.20;49.90;;;;;;5019293;28;20588;-69
2023/06/18 08:46:14;;;;;;;31.50;8.33;;;29.30;49.90;;;;;;5007774;28;20229;-69
2023/06/18 08:48:45;;;;;;;35.37;9.30;;;29.30;50.00;;;;;;5016590;28;20946;-63
2023/06/18 08:51:15;;;;;;;36.20;9.20;;;29.30;50.00;;;;;;5023854;28;20860;-64
2023/06/18 08:53:45;;;;;;;28.57;7.37;;;29.30;50.00;;;;;;5007375;28;20202;-63
2023/06/18 08:56:15;;;;;;;27.00;7.80;;;29.30;50.60;;;;;;5008631;28;20217;-66
2023/06/18 08:58:46;;;;;;;31.27;8.50;;;29.30;50.00;;;;;;5008879;28;20700;-64
2023/06/18 09:01:13;;;;;;;28.30;7.83;;;29.30;50.00;;;;;;5012700;28;20206;-62
2023/06/18 09:03:42;;;;;;;37.73;8.97;;;29.30;50.00;;;;;;5026691;28;20227;-63
2023/06/18 09:06:09;;;;;;;33.07;8.80;;;29.30;50.00;;;;;;5022454;28;20667;-63
2023/06/18 09:08:38;;;;;;;34.23;9.13;;;29.30;50.00;;;;;;5012478;28;20205;-62
2023/06/18 09:11:06;;;;;;;33.80;8.60;;;29.30;50.00;;;;;;5027068;28;20201;-63
2023/06/18 09:13:33;;;;;;;30.90;8.70;;;29.30;50.00;;;;;;5025887;28;20212;-69
2023/06/18 09:16:00;;;;;;;56.80;10.20;;;29.40;50.40;;;;;;5022556;28;20253;-64
2023/06/18 09:18:27;;;;;;;23.57;7.80;;;29.30;50.30;;;;;;5009699;28;20206;-64
2023/06/18 09:20:54;;;;;;;28.43;8.33;;;29.40;50.40;;;;;;5024180;28;20212;-71
2023/06/18 09:23:21;;;;;;;30.70;8.67;;;29.40;50.60;;;;;;5021374;28;20934;-73
2023/06/18 09:25:54;;;;;;;40.90;9.50;;;29.40;50.60;;;;;;5028871;28;20204;-76
2023/06/18 09:28:21;;;;;;;32.73;8.80;;;29.40;50.80;;;;;;5031325;28;20201;-70
2023/06/18 09:30:52;;;;;;;65.60;11.83;;;29.40;50.60;;;;;;5026189;28;20216;-70
2023/06/18 09:33:30;;;;;;;34.53;8.13;;;29.40;50.60;;;;;;5018498;28;20193;-64
2023/06/18 09:36:01;;;;;;;32.80;7.97;;;29.40;50.50;;;;;;5022367;28;20220;-65
2023/06/18 09:38:36;;;;;;;31.97;8.40;;;29.40;50.40;;;;;;5024414;28;20209;-63
2023/06/18 09:41:12;;;;;;;26.30;7.77;;;29.40;50.40;;;;;;5014894;28;20209;-65
2023/06/18 09:43:40;;;;;;;26.57;7.87;;;29.40;50.40;;;;;;5026847;28;20200;-65
2023/06/18 09:46:08;;;;;;;33.93;8.57;;;29.40;50.40;;;;;;5027406;28;20251;-61
2023/06/18 09:48:42;;;;;;;28.67;8.00;;;29.40;50.40;;;;;;5028720;28;20645;-61
2023/06/18 09:51:10;;;;;;;22.30;7.37;;;29.50;50.50;;;;;;5031984;28;20207;-61
2023/06/18 09:53:37;;;;;;;28.17;8.33;;;29.50;50.40;;;;;;5046263;28;20226;-63
2023/06/18 09:56:12;;;;;;;31.80;8.17;;;29.50;50.50;;;;;;5021017;28;20213;-64
2023/06/18 09:58:41;;;;;;;32.17;8.37;;;29.50;50.60;;;;;;5035607;28;20550;-62
2023/06/18 10:01:08;;;;;;;28.30;7.57;;;29.50;50.50;;;;;;5037082;28;20217;-66
2023/06/18 10:03:36;;;;;;;34.63;8.20;;;29.50;50.40;;;;;;5028393;28;20192;-68
2023/06/18 10:06:12;;;;;;;34.70;8.57;;;29.60;50.60;;;;;;5029166;28;20200;-62
2023/06/18 10:08:41;;;;;;;27.33;7.90;;;29.50;50.70;;;;;;5031268;28;20525;-63
2023/06/18 10:11:11;;;;;;;39.17;9.17;;;29.60;50.70;;;;;;5031415;28;20212;-69
2023/06/18 10:13:42;;;;;;;47.33;9.87;;;29.60;50.60;;;;;;5030880;28;20197;-64
2023/06/18 10:16:10;;;;;;;37.83;8.83;;;29.60;50.60;;;;;;5031353;28;20213;-66
2023/06/18 10:18:37;;;;;;;48.90;9.87;;;29.60;50.60;;;;;;5025981;28;20202;-63
2023/06/18 10:21:06;;;;;;;49.50;10.07;;;29.60;50.60;;;;;;5016607;28;20197;-64
2023/06/18 10:23:34;;;;;;;57.93;10.33;;;29.60;50.60;;;;;;5022144;28;20204;-64
2023/06/18 10:26:02;;;;;;;39.60;9.03;;;29.70;50.70;;;;;;5029260;28;20210;-64
2023/06/18 10:28:32;;;;;;;36.57;8.63;;;29.70;50.70;;;;;;5017852;28;20198;-64
2023/06/18 10:31:00;;;;;;;42.23;8.87;;;29.70;50.70;;;;;;5014392;28;20216;-63
2023/06/18 10:33:28;;;;;;;34.57;7.87;;;29.70;50.70;;;;;;5010040;28;20197;-66
2023/06/18 10:35:55;;;;;;;62.13;10.90;;;29.70;50.70;;;;;;5013163;28;20213;-66
2023/06/18 10:38:22;;;;;;;39.63;8.87;;;29.80;50.80;;;;;;5010428;28;20283;-63
2023/06/18 10:40:49;;;;;;;38.67;8.73;;;29.80;50.80;;;;;;5028719;28;20242;-63
2023/06/18 10:43:16;;;;;;;54.17;10.30;;;29.80;50.80;;;;;;5033893;28;20652;-63
2023/06/18 10:46:09;;;;;;;41.77;9.20;;;29.80;50.80;;;;;;5020007;28;20236;-63
2023/06/18 10:48:36;;;;;;;49.63;9.67;;;29.80;51.00;;;;;;5026752;28;20222;-64
2023/06/18 10:51:17;;;;;;;27.97;7.97;;;29.90;51.00;;;;;;5030269;28;20208;-64
2023/06/18 10:53:45;;;;;;;39.80;8.65;;;29.90;51.40;;;;;;5027483;28;20224;-70
2023/06/18 10:56:14;;;;;;;41.70;8.53;;;29.90;51.10;;;;;;5013549;28;20308;-77
2023/06/18 10:58:42;;;;;;;41.13;9.07;;;29.90;51.10;;;;;;5021885;28;20205;-78
2023/06/18 11:01:26;;;;;;;33.93;8.40;;;30.00;51.10;;;;;;5017458;28;20634;-74
2023/06/18 11:04:06;;;;;;;32.20;8.18;;;30.10;51.40;;;;;;5015369;28;20204;-65
2023/06/18 11:06:33;;;;;;;31.67;8.37;;;30.10;51.40;;;;;;5031042;28;20665;-65
2023/06/18 11:09:00;;;;;;;39.37;8.80;;;30.10;51.30;;;;;;5045229;28;20287;-66
2023/06/18 11:11:27;;;;;;;33.57;8.17;;;30.20;51.40;;;;;;5026147;28;20244;-68
2023/06/18 11:13:55;;;;;;;36.10;8.73;;;30.20;51.50;;;;;;5009993;28;20193;-65
2023/06/18 11:16:23;;;;;;;40.57;8.70;;;30.30;51.50;;;;;;5020680;28;20201;-65
2023/06/18 11:18:53;;;;;;;36.53;8.43;;;30.30;51.50;;;;;;5010072;28;20297;-66
2023/06/18 11:21:21;;;;;;;76.47;12.20;;;30.40;51.60;;;;;;5008199;28;20227;-65
2023/06/18 11:23:49;;;;;;;40.92;8.77;;;30.50;51.60;;;;;;5025991;28;20796;-68
2023/06/18 11:26:17;;;;;;;24.38;7.22;;;30.50;51.60;;;;;;5022666;28;20669;-67
2023/06/18 11:28:45;;;;;;;42.00;8.65;;;30.60;51.60;;;;;;5012901;28;20198;-64
2023/06/18 11:31:12;;;;;;;25.27;7.35;;;30.60;51.50;;;;;;5026218;28;20289;-64
2023/06/18 11:33:40;;;;;;;30.98;8.23;;;30.70;51.60;;;;;;5019942;28;20219;-68
2023/06/18 11:36:13;;;;;;;26.05;7.75;;;30.70;51.50;;;;;;5014243;28;20210;-64
2023/06/18 11:38:40;;;;;;;32.45;7.88;;;30.80;51.70;;;;;;5010350;28;20201;-64
2023/06/18 11:41:08;;;;;;;27.10;7.97;;;30.80;51.50;;;;;;5009224;28;20291;-66
2023/06/18 11:43:45;;;;;;;31.35;8.40;;;30.90;51.50;;;;;;5009315;28;20197;-64
2023/06/18 11:46:26;;;;;;;32.55;8.00;;;30.90;51.60;;;;;;5020949;28;20231;-64
2023/06/18 11:48:54;;;;;;;50.33;9.60;;;30.90;51.40;;;;;;5027939;28;20255;-64
2023/06/18 11:51:24;;;;;;;37.58;8.68;;;31.00;51.30;;;;;;5023810;28;20252;-68
2023/06/18 11:53:53;;;;;;;23.88;7.25;;;31.00;51.40;;;;;;5008894;28;20662;-67
2023/06/18 11:56:26;;;;;;;28.35;7.05;;;31.10;51.40;;;;;;5025752;28;20221;-64
2023/06/18 11:58:53;;;;;;;34.00;8.15;;;31.10;51.40;;;;;;5009226;28;20293;-64
2023/06/18 12:01:20;;;;;;;20.83;6.57;;;31.10;51.40;;;;;;5012059;28;20233;-64
2023/06/18 12:03:47;;;;;;;27.80;7.68;;;31.10;51.40;;;;;;5009140;28;20996;-64
2023/06/18 12:06:15;;;;;;;35.53;8.23;;;31.20;51.50;;;;;;5009203;28;20202;-65
2023/06/18 12:08:47;;;;;;;23.48;6.78;;;31.20;51.50;;;;;;5023895;28;20196;-64
2023/06/18 12:11:27;;;;;;;39.45;8.35;;;31.20;51.40;;;;;;5021300;28;20572;-70
2023/06/18 12:13:59;;;;;;;31.77;8.02;;;31.20;51.40;;;;;;5015893;28;20248;-64
2023/06/18 12:16:29;;;;;;;34.42;8.15;;;31.30;51.40;;;;;;5008654;28;20572;-64
2023/06/18 12:19:01;;;;;;;35.95;8.13;;;31.30;51.30;;;;;;5014668;28;20205;-67
2023/06/18 12:21:29;;;;;;;27.85;7.32;;;31.30;51.30;;;;;;5012580;28;20229;-68
2023/06/18 12:23:57;;;;;;;35.83;8.63;;;31.30;51.30;;;;;;5018831;28;20206;-64
2023/06/18 12:26:25;;;;;;;36.00;8.73;;;31.30;51.30;;;;;;5013252;28;20607;-64
2023/06/18 12:28:53;;;;;;;23.60;6.97;;;31.40;51.40;;;;;;5008243;28;20211;-64
2023/06/18 12:31:20;;;;;;;27.90;7.95;;;31.30;51.40;;;;;;5016044;28;20205;-65
2023/06/18 12:33:47;;;;;;;32.97;8.40;;;31.40;51.60;;;;;;5016491;28;20589;-69
2023/06/18 12:36:13;;;;;;;34.47;8.40;;;31.40;51.50;;;;;;5008713;28;20673;-63
2023/06/18 12:38:41;;;;;;;29.38;7.40;;;31.50;51.60;;;;;;5009134;28;20208;-64